sensor_id;sensor_type;location;lat;lon;timestamp;P1;durP1;ratioP1;P2;durP2;ratioP2
69008;SDS011;56065;52.472;13.380;2023-03-16T00:01:37;9.82;;;1.40;;
69008;SDS011;56065;52.472;13.380;2023-03-16T00:04:02;7.33;;;1.20;;
69008;SDS011;56065;52.472;13.380;2023-03-16T00:06:27;9.60;;;2.13;;
69008;SDS011;56065;52.472;13.380;2023-03-16T00:08:53;8.23;;;1.40;;
69008;SDS011;56065;52.472;13.380;2023-03-16T00:11:23;9.15;;;1.98;;
69008;SDS011;56065;52.472;13.380;2023-03-16T00:13:51;8.45;;;1.38;;
69008;SDS011;56065;52.472;13.380;2023-03-16T00:16:16;8.83;;;2.00;;
69008;SDS011;56065;52.472;13.380;2023-03-16T00:18:42;5.83;;;1.40;;
69008;SDS011;56065;52.472;13.380;2023-03-16T00:21:08;6.38;;;1.60;;
69008;SDS011;56065;52.472;13.380;2023-03-16T00:23:34;6.40;;;1.57;;
69008;SDS011;56065;52.472;13.380;2023-03-16T00:26:00;5.18;;;1.50;;
69008;SDS011;56065;52.472;13.380;2023-03-16T00:28:31;9.23;;;1.40;;
69008;SDS011;56065;52.472;13.380;2023-03-16T00:30:59;6.75;;;2.00;;
69008;SDS011;56065;52.472;13.380;2023-03-16T00:33:28;9.70;;;1.43;;
69008;SDS011;56065;52.472;13.380;2023-03-16T00:35:54;6.38;;;1.50;;
69008;SDS011;56065;52.472;13.380;2023-03-16T00:38:28;9.38;;;1.70;;
69008;SDS011;56065;52.472;13.380;2023-03-16T00:40:56;9.48;;;1.65;;
69008;SDS011;56065;52.472;13.380;2023-03-16T00:43:21;7.68;;;1.33;;
69008;SDS011;56065;52.472;13.380;2023-03-16T00:45:46;8.33;;;1.23;;
69008;SDS011;56065;52.472;13.380;2023-03-16T00:48:12;7.77;;;1.13;;
69008;SDS011;56065;52.472;13.380;2023-03-16T00:50:37;5.93;;;1.23;;
69008;SDS011;56065;52.472;13.380;2023-03-16T00:53:03;8.38;;;1.80;;
69008;SDS011;56065;52.472;13.380;2023-03-16T00:55:30;8.20;;;1.80;;
69008;SDS011;56065;52.472;13.380;2023-03-16T00:57:56;8.10;;;1.50;;
69008;SDS011;56065;52.472;13.380;2023-03-16T01:00:21;8.03;;;1.40;;
69008;SDS011;56065;52.472;13.380;2023-03-16T01:02:50;5.80;;;1.17;;
69008;SDS011;56065;52.472;13.380;2023-03-16T01:05:16;8.80;;;1.77;;
69008;SDS011;56065;52.472;13.380;2023-03-16T01:07:41;9.98;;;1.40;;
69008;SDS011;56065;52.472;13.380;2023-03-16T01:10:09;9.17;;;1.63;;
69008;SDS011;56065;52.472;13.380;2023-03-16T01:12:35;6.60;;;1.60;;
69008;SDS011;56065;52.472;13.380;2023-03-16T01:15:00;6.43;;;1.57;;
69008;SDS011;56065;52.472;13.380;2023-03-16T01:17:26;7.95;;;1.67;;
69008;SDS011;56065;52.472;13.380;2023-03-16T01:19:52;8.33;;;1.73;;
69008;SDS011;56065;52.472;13.380;2023-03-16T01:22:17;7.15;;;1.38;;
69008;SDS011;56065;52.472;13.380;2023-03-16T01:24:43;9.40;;;1.60;;
69008;SDS011;56065;52.472;13.380;2023-03-16T01:27:09;6.37;;;1.60;;
69008;SDS011;56065;52.472;13.380;2023-03-16T01:29:35;9.55;;;1.45;;
69008;SDS011;56065;52.472;13.380;2023-03-16T01:32:01;7.30;;;1.45;;
69008;SDS011;56065;52.472;13.380;2023-03-16T01:34:28;8.40;;;1.30;;
69008;SDS011;56065;52.472;13.380;2023-03-16T01:36:53;7.38;;;1.17;;
69008;SDS011;56065;52.472;13.380;2023-03-16T01:39:19;7.50;;;1.30;;
69008;SDS011;56065;52.472;13.380;2023-03-16T01:41:44;8.17;;;1.53;;
69008;SDS011;56065;52.472;13.380;2023-03-16T01:44:21;7.53;;;1.42;;
69008;SDS011;56065;52.472;13.380;2023-03-16T01:46:52;7.22;;;1.27;;
69008;SDS011;56065;52.472;13.380;2023-03-16T01:49:28;9.47;;;1.43;;
69008;SDS011;56065;52.472;13.380;2023-03-16T01:51:59;8.00;;;1.65;;
69008;SDS011;56065;52.472;13.380;2023-03-16T01:54:47;9.90;;;1.40;;
69008;SDS011;56065;52.472;13.380;2023-03-16T01:57:17;5.30;;;1.30;;
69008;SDS011;56065;52.472;13.380;2023-03-16T02:02:17;9.18;;;1.45;;
69008;SDS011;56065;52.472;13.380;2023-03-16T02:07:26;8.38;;;1.30;;
69008;SDS011;56065;52.472;13.380;2023-03-16T02:09:55;7.97;;;1.50;;
69008;SDS011;56065;52.472;13.380;2023-03-16T02:12:23;5.73;;;1.60;;
69008;SDS011;56065;52.472;13.380;2023-03-16T02:14:49;7.95;;;1.35;;
69008;SDS011;56065;52.472;13.380;2023-03-16T02:17:17;8.80;;;1.42;;
69008;SDS011;56065;52.472;13.380;2023-03-16T02:19:53;8.50;;;1.48;;
69008;SDS011;56065;52.472;13.380;2023-03-16T02:22:24;7.55;;;1.30;;
69008;SDS011;56065;52.472;13.380;2023-03-16T02:24:50;9.90;;;1.63;;
69008;SDS011;56065;52.472;13.380;2023-03-16T02:27:26;5.55;;;1.23;;
69008;SDS011;56065;52.472;13.380;2023-03-16T02:30:17;9.53;;;1.43;;
69008;SDS011;56065;52.472;13.380;2023-03-16T02:32:43;9.10;;;1.48;;
69008;SDS011;56065;52.472;13.380;2023-03-16T02:35:12;5.80;;;1.02;;
69008;SDS011;56065;52.472;13.380;2023-03-16T02:37:38;5.30;;;1.08;;
69008;SDS011;56065;52.472;13.380;2023-03-16T02:43:01;9.75;;;1.20;;
69008;SDS011;56065;52.472;13.380;2023-03-16T02:45:31;6.90;;;1.30;;
69008;SDS011;56065;52.472;13.380;2023-03-16T02:48:01;4.15;;;0.90;;
69008;SDS011;56065;52.472;13.380;2023-03-16T02:50:33;6.70;;;1.35;;
69008;SDS011;56065;52.472;13.380;2023-03-16T02:52:58;5.60;;;1.20;;
69008;SDS011;56065;52.472;13.380;2023-03-16T02:55:23;6.37;;;1.50;;
69008;SDS011;56065;52.472;13.380;2023-03-16T02:57:49;9.77;;;2.33;;
69008;SDS011;56065;52.472;13.380;2023-03-16T03:00:16;8.88;;;1.90;;
69008;SDS011;56065;52.472;13.380;2023-03-16T03:02:43;8.13;;;2.22;;
69008;SDS011;56065;52.472;13.380;2023-03-16T03:05:09;10.83;;;2.30;;
69008;SDS011;56065;52.472;13.380;2023-03-16T03:07:36;6.60;;;1.83;;
69008;SDS011;56065;52.472;13.380;2023-03-16T03:10:02;6.05;;;1.73;;
69008;SDS011;56065;52.472;13.380;2023-03-16T03:12:30;9.95;;;1.55;;
69008;SDS011;56065;52.472;13.380;2023-03-16T03:14:58;7.97;;;1.80;;
69008;SDS011;56065;52.472;13.380;2023-03-16T03:17:23;11.75;;;2.00;;
69008;SDS011;56065;52.472;13.380;2023-03-16T03:19:55;10.40;;;1.80;;
69008;SDS011;56065;52.472;13.380;2023-03-16T03:22:21;9.32;;;1.83;;
69008;SDS011;56065;52.472;13.380;2023-03-16T03:24:47;8.10;;;1.50;;
69008;SDS011;56065;52.472;13.380;2023-03-16T03:27:12;6.33;;;1.47;;
69008;SDS011;56065;52.472;13.380;2023-03-16T03:29:37;8.35;;;1.70;;
69008;SDS011;56065;52.472;13.380;2023-03-16T03:32:03;9.03;;;2.20;;
69008;SDS011;56065;52.472;13.380;2023-03-16T03:34:29;7.73;;;1.57;;
69008;SDS011;56065;52.472;13.380;2023-03-16T03:36:55;9.80;;;1.90;;
69008;SDS011;56065;52.472;13.380;2023-03-16T03:39:21;7.93;;;1.90;;
69008;SDS011;56065;52.472;13.380;2023-03-16T03:41:46;6.83;;;1.83;;
69008;SDS011;56065;52.472;13.380;2023-03-16T03:44:11;10.23;;;1.47;;
69008;SDS011;56065;52.472;13.380;2023-03-16T03:46:37;9.10;;;1.80;;
69008;SDS011;56065;52.472;13.380;2023-03-16T03:49:02;7.07;;;1.40;;
69008;SDS011;56065;52.472;13.380;2023-03-16T03:51:29;5.93;;;1.35;;
69008;SDS011;56065;52.472;13.380;2023-03-16T03:53:55;6.63;;;1.50;;
69008;SDS011;56065;52.472;13.380;2023-03-16T03:56:21;7.15;;;1.35;;
69008;SDS011;56065;52.472;13.380;2023-03-16T03:58:47;6.40;;;1.50;;
69008;SDS011;56065;52.472;13.380;2023-03-16T04:01:12;7.23;;;1.50;;
69008;SDS011;56065;52.472;13.380;2023-03-16T04:03:37;9.10;;;1.40;;
69008;SDS011;56065;52.472;13.380;2023-03-16T04:06:03;9.77;;;1.90;;
69008;SDS011;56065;52.472;13.380;2023-03-16T04:08:31;11.32;;;2.08;;
69008;SDS011;56065;52.472;13.380;2023-03-16T04:10:56;7.47;;;1.50;;
69008;SDS011;56065;52.472;13.380;2023-03-16T04:13:22;8.75;;;1.70;;
69008;SDS011;56065;52.472;13.380;2023-03-16T04:15:47;9.35;;;1.98;;
69008;SDS011;56065;52.472;13.380;2023-03-16T04:18:12;6.57;;;1.60;;
69008;SDS011;56065;52.472;13.380;2023-03-16T04:20:38;5.50;;;1.70;;
69008;SDS011;56065;52.472;13.380;2023-03-16T04:23:03;8.00;;;1.90;;
69008;SDS011;56065;52.472;13.380;2023-03-16T04:25:29;11.52;;;2.35;;
69008;SDS011;56065;52.472;13.380;2023-03-16T04:27:55;8.50;;;1.30;;
69008;SDS011;56065;52.472;13.380;2023-03-16T04:30:20;10.55;;;2.03;;
69008;SDS011;56065;52.472;13.380;2023-03-16T04:32:49;9.75;;;1.90;;
69008;SDS011;56065;52.472;13.380;2023-03-16T04:35:16;10.57;;;1.77;;
69008;SDS011;56065;52.472;13.380;2023-03-16T04:37:42;8.15;;;1.67;;
69008;SDS011;56065;52.472;13.380;2023-03-16T04:40:07;10.37;;;1.70;;
69008;SDS011;56065;52.472;13.380;2023-03-16T04:42:39;12.82;;;2.03;;
69008;SDS011;56065;52.472;13.380;2023-03-16T04:45:05;8.77;;;2.30;;
69008;SDS011;56065;52.472;13.380;2023-03-16T04:47:30;10.80;;;1.70;;
69008;SDS011;56065;52.472;13.380;2023-03-16T04:49:57;7.93;;;1.60;;
69008;SDS011;56065;52.472;13.380;2023-03-16T04:52:24;9.57;;;1.70;;
69008;SDS011;56065;52.472;13.380;2023-03-16T04:54:49;11.90;;;1.80;;
69008;SDS011;56065;52.472;13.380;2023-03-16T04:57:15;7.03;;;1.55;;
69008;SDS011;56065;52.472;13.380;2023-03-16T04:59:43;7.10;;;1.83;;
69008;SDS011;56065;52.472;13.380;2023-03-16T05:02:08;8.13;;;1.73;;
69008;SDS011;56065;52.472;13.380;2023-03-16T05:04:34;10.43;;;2.13;;
69008;SDS011;56065;52.472;13.380;2023-03-16T05:06:59;9.30;;;2.17;;
69008;SDS011;56065;52.472;13.380;2023-03-16T05:09:24;7.07;;;1.90;;
69008;SDS011;56065;52.472;13.380;2023-03-16T05:11:50;8.60;;;1.77;;
69008;SDS011;56065;52.472;13.380;2023-03-16T05:14:15;8.07;;;1.40;;
69008;SDS011;56065;52.472;13.380;2023-03-16T05:16:40;7.17;;;1.53;;
69008;SDS011;56065;52.472;13.380;2023-03-16T05:19:06;8.90;;;1.40;;
69008;SDS011;56065;52.472;13.380;2023-03-16T05:21:31;9.68;;;1.83;;
69008;SDS011;56065;52.472;13.380;2023-03-16T05:23:59;6.60;;;1.65;;
69008;SDS011;56065;52.472;13.380;2023-03-16T05:26:24;14.57;;;2.07;;
69008;SDS011;56065;52.472;13.380;2023-03-16T05:28:50;9.20;;;2.40;;
69008;SDS011;56065;52.472;13.380;2023-03-16T05:31:16;7.87;;;1.80;;
69008;SDS011;56065;52.472;13.380;2023-03-16T05:33:41;6.88;;;1.50;;
69008;SDS011;56065;52.472;13.380;2023-03-16T05:36:08;10.65;;;1.85;;
69008;SDS011;56065;52.472;13.380;2023-03-16T05:38:34;7.13;;;1.73;;
69008;SDS011;56065;52.472;13.380;2023-03-16T05:41:00;9.52;;;1.55;;
69008;SDS011;56065;52.472;13.380;2023-03-16T05:43:28;10.30;;;1.98;;
69008;SDS011;56065;52.472;13.380;2023-03-16T05:45:54;7.53;;;2.35;;
69008;SDS011;56065;52.472;13.380;2023-03-16T05:48:21;8.48;;;1.83;;
69008;SDS011;56065;52.472;13.380;2023-03-16T05:50:46;10.00;;;1.77;;
69008;SDS011;56065;52.472;13.380;2023-03-16T05:53:12;7.30;;;1.73;;
69008;SDS011;56065;52.472;13.380;2023-03-16T05:55:39;7.47;;;2.10;;
69008;SDS011;56065;52.472;13.380;2023-03-16T05:58:05;8.93;;;2.20;;
69008;SDS011;56065;52.472;13.380;2023-03-16T06:00:30;7.20;;;2.15;;
69008;SDS011;56065;52.472;13.380;2023-03-16T06:02:56;7.10;;;2.07;;
69008;SDS011;56065;52.472;13.380;2023-03-16T06:05:22;7.47;;;1.43;;
69008;SDS011;56065;52.472;13.380;2023-03-16T06:07:49;10.88;;;1.77;;
69008;SDS011;56065;52.472;13.380;2023-03-16T06:10:15;6.25;;;1.83;;
69008;SDS011;56065;52.472;13.380;2023-03-16T06:12:40;8.17;;;1.73;;
69008;SDS011;56065;52.472;13.380;2023-03-16T06:15:06;10.60;;;1.80;;
69008;SDS011;56065;52.472;13.380;2023-03-16T06:17:34;10.13;;;1.80;;
69008;SDS011;56065;52.472;13.380;2023-03-16T06:20:00;10.75;;;2.30;;
69008;SDS011;56065;52.472;13.380;2023-03-16T06:22:25;10.40;;;2.67;;
69008;SDS011;56065;52.472;13.380;2023-03-16T06:24:51;8.20;;;1.98;;
69008;SDS011;56065;52.472;13.380;2023-03-16T06:27:17;6.78;;;1.92;;
69008;SDS011;56065;52.472;13.380;2023-03-16T06:29:44;5.87;;;2.03;;
69008;SDS011;56065;52.472;13.380;2023-03-16T06:32:10;8.30;;;1.98;;
69008;SDS011;56065;52.472;13.380;2023-03-16T06:34:35;6.70;;;2.00;;
69008;SDS011;56065;52.472;13.380;2023-03-16T06:37:01;8.23;;;2.10;;
69008;SDS011;56065;52.472;13.380;2023-03-16T06:39:27;6.53;;;1.87;;
69008;SDS011;56065;52.472;13.380;2023-03-16T06:41:53;9.27;;;1.83;;
69008;SDS011;56065;52.472;13.380;2023-03-16T06:44:18;8.57;;;2.00;;
69008;SDS011;56065;52.472;13.380;2023-03-16T06:46:45;8.63;;;2.20;;
69008;SDS011;56065;52.472;13.380;2023-03-16T06:49:10;10.73;;;2.80;;
69008;SDS011;56065;52.472;13.380;2023-03-16T06:51:35;7.13;;;2.13;;
69008;SDS011;56065;52.472;13.380;2023-03-16T06:54:01;6.33;;;1.70;;
69008;SDS011;56065;52.472;13.380;2023-03-16T06:56:26;11.88;;;2.00;;
69008;SDS011;56065;52.472;13.380;2023-03-16T06:58:52;8.77;;;2.20;;
69008;SDS011;56065;52.472;13.380;2023-03-16T07:01:17;10.73;;;2.10;;
69008;SDS011;56065;52.472;13.380;2023-03-16T07:03:43;8.33;;;1.93;;
69008;SDS011;56065;52.472;13.380;2023-03-16T07:06:08;9.03;;;1.80;;
69008;SDS011;56065;52.472;13.380;2023-03-16T07:08:33;8.63;;;1.90;;
69008;SDS011;56065;52.472;13.380;2023-03-16T07:10:59;9.63;;;1.87;;
69008;SDS011;56065;52.472;13.380;2023-03-16T07:13:25;9.20;;;2.50;;
69008;SDS011;56065;52.472;13.380;2023-03-16T07:15:51;8.93;;;2.47;;
69008;SDS011;56065;52.472;13.380;2023-03-16T07:18:17;14.52;;;2.33;;
69008;SDS011;56065;52.472;13.380;2023-03-16T07:20:43;8.77;;;2.30;;
69008;SDS011;56065;52.472;13.380;2023-03-16T07:23:08;8.13;;;1.93;;
69008;SDS011;56065;52.472;13.380;2023-03-16T07:25:34;9.00;;;2.10;;
69008;SDS011;56065;52.472;13.380;2023-03-16T07:28:00;12.57;;;2.00;;
69008;SDS011;56065;52.472;13.380;2023-03-16T07:30:26;8.43;;;2.10;;
69008;SDS011;56065;52.472;13.380;2023-03-16T07:32:51;8.60;;;2.30;;
69008;SDS011;56065;52.472;13.380;2023-03-16T07:35:17;7.57;;;1.97;;
69008;SDS011;56065;52.472;13.380;2023-03-16T07:37:42;10.23;;;2.00;;
69008;SDS011;56065;52.472;13.380;2023-03-16T07:40:08;8.50;;;1.83;;
69008;SDS011;56065;52.472;13.380;2023-03-16T07:42:34;8.93;;;1.87;;
69008;SDS011;56065;52.472;13.380;2023-03-16T07:45:01;7.78;;;1.63;;
69008;SDS011;56065;52.472;13.380;2023-03-16T07:47:27;8.68;;;2.08;;
69008;SDS011;56065;52.472;13.380;2023-03-16T07:49:54;8.52;;;2.50;;
69008;SDS011;56065;52.472;13.380;2023-03-16T07:52:19;7.17;;;1.93;;
69008;SDS011;56065;52.472;13.380;2023-03-16T07:54:45;8.27;;;1.77;;
69008;SDS011;56065;52.472;13.380;2023-03-16T07:57:10;6.65;;;1.80;;
69008;SDS011;56065;52.472;13.380;2023-03-16T07:59:36;9.10;;;2.00;;
69008;SDS011;56065;52.472;13.380;2023-03-16T08:02:02;8.80;;;1.85;;
69008;SDS011;56065;52.472;13.380;2023-03-16T08:04:28;7.00;;;1.60;;
69008;SDS011;56065;52.472;13.380;2023-03-16T08:06:53;7.13;;;1.83;;
69008;SDS011;56065;52.472;13.380;2023-03-16T08:09:24;6.68;;;1.50;;
69008;SDS011;56065;52.472;13.380;2023-03-16T08:11:50;10.30;;;2.08;;
69008;SDS011;56065;52.472;13.380;2023-03-16T08:14:15;12.20;;;3.10;;
69008;SDS011;56065;52.472;13.380;2023-03-16T08:16:41;9.75;;;2.33;;
69008;SDS011;56065;52.472;13.380;2023-03-16T08:19:06;6.30;;;1.60;;
69008;SDS011;56065;52.472;13.380;2023-03-16T08:21:32;5.37;;;1.50;;
69008;SDS011;56065;52.472;13.380;2023-03-16T08:23:58;6.95;;;1.70;;
69008;SDS011;56065;52.472;13.380;2023-03-16T08:26:23;6.87;;;1.50;;
69008;SDS011;56065;52.472;13.380;2023-03-16T08:28:50;5.50;;;1.30;;
69008;SDS011;56065;52.472;13.380;2023-03-16T08:31:17;7.25;;;1.55;;
69008;SDS011;56065;52.472;13.380;2023-03-16T08:33:44;6.82;;;1.42;;
69008;SDS011;56065;52.472;13.380;2023-03-16T08:36:12;6.72;;;1.55;;
69008;SDS011;56065;52.472;13.380;2023-03-16T08:38:39;5.87;;;1.17;;
69008;SDS011;56065;52.472;13.380;2023-03-16T08:41:06;5.38;;;1.42;;
69008;SDS011;56065;52.472;13.380;2023-03-16T08:43:32;6.60;;;1.38;;
69008;SDS011;56065;52.472;13.380;2023-03-16T08:45:58;9.80;;;1.33;;
69008;SDS011;56065;52.472;13.380;2023-03-16T08:48:25;6.40;;;1.80;;
69008;SDS011;56065;52.472;13.380;2023-03-16T08:50:50;5.53;;;1.23;;
69008;SDS011;56065;52.472;13.380;2023-03-16T08:53:17;7.43;;;1.30;;
69008;SDS011;56065;52.472;13.380;2023-03-16T08:55:43;10.27;;;1.23;;
69008;SDS011;56065;52.472;13.380;2023-03-16T08:58:10;8.48;;;1.15;;
69008;SDS011;56065;52.472;13.380;2023-03-16T09:00:36;6.75;;;1.40;;
69008;SDS011;56065;52.472;13.380;2023-03-16T09:03:02;12.38;;;1.65;;
69008;SDS011;56065;52.472;13.380;2023-03-16T09:05:28;6.60;;;1.40;;
69008;SDS011;56065;52.472;13.380;2023-03-16T09:07:54;7.82;;;1.05;;
69008;SDS011;56065;52.472;13.380;2023-03-16T09:10:21;5.88;;;1.60;;
69008;SDS011;56065;52.472;13.380;2023-03-16T09:12:47;6.32;;;1.50;;
69008;SDS011;56065;52.472;13.380;2023-03-16T09:15:14;6.17;;;1.40;;
69008;SDS011;56065;52.472;13.380;2023-03-16T09:17:39;5.47;;;1.63;;
69008;SDS011;56065;52.472;13.380;2023-03-16T09:20:10;7.35;;;1.35;;
69008;SDS011;56065;52.472;13.380;2023-03-16T09:22:36;5.97;;;1.40;;
69008;SDS011;56065;52.472;13.380;2023-03-16T09:25:05;6.53;;;1.80;;
69008;SDS011;56065;52.472;13.380;2023-03-16T09:27:32;7.07;;;1.55;;
69008;SDS011;56065;52.472;13.380;2023-03-16T09:29:59;8.65;;;1.40;;
69008;SDS011;56065;52.472;13.380;2023-03-16T09:32:26;7.40;;;1.90;;
69008;SDS011;56065;52.472;13.380;2023-03-16T09:34:52;7.37;;;1.50;;
69008;SDS011;56065;52.472;13.380;2023-03-16T09:37:18;8.07;;;1.92;;
69008;SDS011;56065;52.472;13.380;2023-03-16T09:39:44;10.43;;;1.95;;
69008;SDS011;56065;52.472;13.380;2023-03-16T09:42:24;6.03;;;1.50;;
69008;SDS011;56065;52.472;13.380;2023-03-16T09:45:05;6.83;;;1.93;;
69008;SDS011;56065;52.472;13.380;2023-03-16T09:47:37;6.32;;;1.63;;
69008;SDS011;56065;52.472;13.380;2023-03-16T09:50:04;13.25;;;2.67;;
69008;SDS011;56065;52.472;13.380;2023-03-16T09:52:46;9.60;;;2.00;;
69008;SDS011;56065;52.472;13.380;2023-03-16T09:55:26;10.13;;;2.13;;
69008;SDS011;56065;52.472;13.380;2023-03-16T09:57:56;14.38;;;2.22;;
69008;SDS011;56065;52.472;13.380;2023-03-16T10:00:24;8.07;;;1.80;;
69008;SDS011;56065;52.472;13.380;2023-03-16T10:05:23;7.50;;;1.90;;
69008;SDS011;56065;52.472;13.380;2023-03-16T10:16:00;6.75;;;1.83;;
69008;SDS011;56065;52.472;13.380;2023-03-16T10:18:43;6.03;;;1.50;;
69008;SDS011;56065;52.472;13.380;2023-03-16T10:21:14;8.47;;;1.53;;
69008;SDS011;56065;52.472;13.380;2023-03-16T10:23:42;6.28;;;1.40;;
69008;SDS011;56065;52.472;13.380;2023-03-16T10:26:17;6.82;;;1.58;;
69008;SDS011;56065;52.472;13.380;2023-03-16T10:28:47;6.75;;;1.42;;
69008;SDS011;56065;52.472;13.380;2023-03-16T10:31:12;6.03;;;1.43;;
69008;SDS011;56065;52.472;13.380;2023-03-16T10:33:44;7.10;;;1.63;;
69008;SDS011;56065;52.472;13.380;2023-03-16T10:38:51;7.47;;;1.45;;
69008;SDS011;56065;52.472;13.380;2023-03-16T10:46:18;5.03;;;1.40;;
69008;SDS011;56065;52.472;13.380;2023-03-16T10:48:50;7.28;;;1.23;;
69008;SDS011;56065;52.472;13.380;2023-03-16T10:51:35;5.40;;;1.23;;
69008;SDS011;56065;52.472;13.380;2023-03-16T10:54:06;5.65;;;1.30;;
69008;SDS011;56065;52.472;13.380;2023-03-16T10:56:46;6.68;;;1.38;;
69008;SDS011;56065;52.472;13.380;2023-03-16T11:01:49;6.25;;;1.48;;
69008;SDS011;56065;52.472;13.380;2023-03-16T11:04:14;4.90;;;1.10;;
69008;SDS011;56065;52.472;13.380;2023-03-16T11:06:51;5.50;;;1.30;;
69008;SDS011;56065;52.472;13.380;2023-03-16T11:09:21;7.97;;;1.57;;
69008;SDS011;56065;52.472;13.380;2023-03-16T11:11:49;6.28;;;1.40;;
69008;SDS011;56065;52.472;13.380;2023-03-16T11:14:18;5.00;;;1.23;;
69008;SDS011;56065;52.472;13.380;2023-03-16T11:22:03;6.53;;;1.50;;
69008;SDS011;56065;52.472;13.380;2023-03-16T11:27:13;5.32;;;1.20;;
69008;SDS011;56065;52.472;13.380;2023-03-16T11:32:30;6.30;;;1.52;;
69008;SDS011;56065;52.472;13.380;2023-03-16T11:35:16;6.37;;;1.30;;
69008;SDS011;56065;52.472;13.380;2023-03-16T11:41:09;6.65;;;1.73;;
69008;SDS011;56065;52.472;13.380;2023-03-16T11:43:48;3.95;;;1.15;;
69008;SDS011;56065;52.472;13.380;2023-03-16T11:54:21;5.80;;;1.25;;
69008;SDS011;56065;52.472;13.380;2023-03-16T11:56:53;7.78;;;1.92;;
69008;SDS011;56065;52.472;13.380;2023-03-16T12:08:01;6.05;;;1.42;;
69008;SDS011;56065;52.472;13.380;2023-03-16T12:13:31;10.05;;;1.40;;
69008;SDS011;56065;52.472;13.380;2023-03-16T12:16:10;4.00;;;1.00;;
69008;SDS011;56065;52.472;13.380;2023-03-16T12:18:47;4.95;;;1.10;;
69008;SDS011;56065;52.472;13.380;2023-03-16T12:23:55;7.88;;;1.20;;
69008;SDS011;56065;52.472;13.380;2023-03-16T12:26:26;12.05;;;1.30;;
69008;SDS011;56065;52.472;13.380;2023-03-16T12:28:56;7.17;;;1.00;;
69008;SDS011;56065;52.472;13.380;2023-03-16T12:34:32;7.80;;;1.45;;
69008;SDS011;56065;52.472;13.380;2023-03-16T12:47:49;6.15;;;1.55;;
69008;SDS011;56065;52.472;13.380;2023-03-16T12:50:31;4.45;;;1.10;;
69008;SDS011;56065;52.472;13.380;2023-03-16T12:52:57;5.70;;;1.37;;
69008;SDS011;56065;52.472;13.380;2023-03-16T12:55:38;4.27;;;1.10;;
69008;SDS011;56065;52.472;13.380;2023-03-16T12:58:08;4.43;;;0.80;;
69008;SDS011;56065;52.472;13.380;2023-03-16T13:00:34;5.93;;;0.90;;
69008;SDS011;56065;52.472;13.380;2023-03-16T13:03:01;4.83;;;1.10;;
69008;SDS011;56065;52.472;13.380;2023-03-16T13:05:33;5.25;;;1.00;;
69008;SDS011;56065;52.472;13.380;2023-03-16T13:08:07;5.95;;;1.27;;
69008;SDS011;56065;52.472;13.380;2023-03-16T13:10:35;4.13;;;0.80;;
69008;SDS011;56065;52.472;13.380;2023-03-16T13:13:20;4.40;;;0.75;;
69008;SDS011;56065;52.472;13.380;2023-03-16T13:15:49;3.93;;;0.90;;
69008;SDS011;56065;52.472;13.380;2023-03-16T13:18:36;3.63;;;0.88;;
69008;SDS011;56065;52.472;13.380;2023-03-16T13:21:16;4.72;;;0.73;;
69008;SDS011;56065;52.472;13.380;2023-03-16T13:23:51;4.43;;;0.85;;
69008;SDS011;56065;52.472;13.380;2023-03-16T13:26:22;5.32;;;1.00;;
69008;SDS011;56065;52.472;13.380;2023-03-16T13:29:02;3.17;;;0.63;;
69008;SDS011;56065;52.472;13.380;2023-03-16T13:31:42;3.63;;;0.90;;
69008;SDS011;56065;52.472;13.380;2023-03-16T13:34:11;4.18;;;0.60;;
69008;SDS011;56065;52.472;13.380;2023-03-16T13:36:39;5.17;;;1.17;;
69008;SDS011;56065;52.472;13.380;2023-03-16T13:39:18;3.72;;;0.60;;
69008;SDS011;56065;52.472;13.380;2023-03-16T13:42:01;3.70;;;0.80;;
69008;SDS011;56065;52.472;13.380;2023-03-16T13:44:47;3.78;;;1.05;;
69008;SDS011;56065;52.472;13.380;2023-03-16T13:47:17;5.63;;;0.90;;
69008;SDS011;56065;52.472;13.380;2023-03-16T13:49:45;10.23;;;1.20;;
69008;SDS011;56065;52.472;13.380;2023-03-16T13:52:18;2.58;;;0.40;;
69008;SDS011;56065;52.472;13.380;2023-03-16T13:54:49;4.70;;;0.60;;
69008;SDS011;56065;52.472;13.380;2023-03-16T13:57:17;6.35;;;1.00;;
69008;SDS011;56065;52.472;13.380;2023-03-16T13:59:48;5.10;;;0.70;;
69008;SDS011;56065;52.472;13.380;2023-03-16T14:02:16;4.43;;;1.10;;
69008;SDS011;56065;52.472;13.380;2023-03-16T14:04:42;5.32;;;0.93;;
69008;SDS011;56065;52.472;13.380;2023-03-16T14:07:14;5.10;;;0.80;;
69008;SDS011;56065;52.472;13.380;2023-03-16T14:09:41;4.32;;;0.85;;
69008;SDS011;56065;52.472;13.380;2023-03-16T14:12:12;4.10;;;0.98;;
69008;SDS011;56065;52.472;13.380;2023-03-16T14:14:39;4.35;;;0.88;;
69008;SDS011;56065;52.472;13.380;2023-03-16T14:17:12;5.80;;;0.90;;
69008;SDS011;56065;52.472;13.380;2023-03-16T14:19:49;5.45;;;0.77;;
69008;SDS011;56065;52.472;13.380;2023-03-16T14:22:18;4.03;;;0.57;;
69008;SDS011;56065;52.472;13.380;2023-03-16T14:24:52;5.63;;;1.02;;
69008;SDS011;56065;52.472;13.380;2023-03-16T14:27:24;4.50;;;0.80;;
69008;SDS011;56065;52.472;13.380;2023-03-16T14:29:55;4.23;;;0.70;;
69008;SDS011;56065;52.472;13.380;2023-03-16T14:32:27;6.45;;;1.42;;
69008;SDS011;56065;52.472;13.380;2023-03-16T14:37:37;4.55;;;0.70;;
69008;SDS011;56065;52.472;13.380;2023-03-16T14:40:05;3.85;;;0.70;;
69008;SDS011;56065;52.472;13.380;2023-03-16T14:42:32;3.30;;;0.70;;
69008;SDS011;56065;52.472;13.380;2023-03-16T14:45:03;4.03;;;0.80;;
69008;SDS011;56065;52.472;13.380;2023-03-16T14:47:38;4.43;;;0.65;;
69008;SDS011;56065;52.472;13.380;2023-03-16T14:50:27;4.55;;;0.80;;
69008;SDS011;56065;52.472;13.380;2023-03-16T14:52:53;3.85;;;0.73;;
69008;SDS011;56065;52.472;13.380;2023-03-16T14:55:21;4.03;;;0.63;;
69008;SDS011;56065;52.472;13.380;2023-03-16T14:57:48;5.07;;;0.60;;
69008;SDS011;56065;52.472;13.380;2023-03-16T15:00:15;3.42;;;0.60;;
69008;SDS011;56065;52.472;13.380;2023-03-16T15:02:43;5.97;;;0.75;;
69008;SDS011;56065;52.472;13.380;2023-03-16T15:05:19;3.05;;;0.80;;
69008;SDS011;56065;52.472;13.380;2023-03-16T15:07:48;4.03;;;0.83;;
69008;SDS011;56065;52.472;13.380;2023-03-16T15:10:23;5.43;;;0.70;;
69008;SDS011;56065;52.472;13.380;2023-03-16T15:12:51;4.85;;;0.50;;
69008;SDS011;56065;52.472;13.380;2023-03-16T15:15:28;6.75;;;0.88;;
69008;SDS011;56065;52.472;13.380;2023-03-16T15:17:54;3.35;;;0.77;;
69008;SDS011;56065;52.472;13.380;2023-03-16T15:20:31;3.43;;;0.70;;
69008;SDS011;56065;52.472;13.380;2023-03-16T15:23:00;4.03;;;0.50;;
69008;SDS011;56065;52.472;13.380;2023-03-16T15:26:02;4.53;;;0.90;;
69008;SDS011;56065;52.472;13.380;2023-03-16T15:28:25;5.82;;;0.88;;
69008;SDS011;56065;52.472;13.380;2023-03-16T15:30:52;4.35;;;0.57;;
69008;SDS011;56065;52.472;13.380;2023-03-16T15:33:20;4.95;;;0.88;;
69008;SDS011;56065;52.472;13.380;2023-03-16T15:35:46;5.87;;;0.63;;
69008;SDS011;56065;52.472;13.380;2023-03-16T15:38:14;5.00;;;0.80;;
69008;SDS011;56065;52.472;13.380;2023-03-16T15:40:45;3.00;;;0.60;;
69008;SDS011;56065;52.472;13.380;2023-03-16T15:43:12;5.65;;;0.50;;
69008;SDS011;56065;52.472;13.380;2023-03-16T15:45:40;2.33;;;0.40;;
69008;SDS011;56065;52.472;13.380;2023-03-16T15:48:07;2.57;;;0.60;;
69008;SDS011;56065;52.472;13.380;2023-03-16T15:50:33;3.47;;;0.60;;
69008;SDS011;56065;52.472;13.380;2023-03-16T15:53:01;3.88;;;0.50;;
69008;SDS011;56065;52.472;13.380;2023-03-16T15:55:37;3.85;;;0.80;;
69008;SDS011;56065;52.472;13.380;2023-03-16T15:58:08;4.32;;;0.55;;
69008;SDS011;56065;52.472;13.380;2023-03-16T16:00:41;2.30;;;0.40;;
69008;SDS011;56065;52.472;13.380;2023-03-16T16:03:09;4.20;;;0.60;;